sensor_id;sensor_type;location;lat;lon;timestamp;temperature;humidity
12922;DHT22;6528;48.086;16.282;2024-01-15T00:01:17;21.50;1.00
12922;DHT22;6528;48.086;16.282;2024-01-15T00:03:45;21.40;1.00
12922;DHT22;6528;48.086;16.282;2024-01-15T00:06:14;21.40;1.00
12922;DHT22;6528;48.086;16.282;2024-01-15T00:08:41;21.40;1.00
12922;DHT22;6528;48.086;16.282;2024-01-15T00:11:08;21.40;1.00
12922;DHT22;6528;48.086;16.282;2024-01-15T00:13:36;21.40;1.00
12922;DHT22;6528;48.086;16.282;2024-01-15T00:16:06;21.40;1.00
12922;DHT22;6528;48.086;16.282;2024-01-15T00:18:34;21.40;1.00
12922;DHT22;6528;48.086;16.282;2024-01-15T00:21:02;21.40;1.00
12922;DHT22;6528;48.086;16.282;2024-01-15T00:23:30;21.40;1.00
12922;DHT22;6528;48.086;16.282;2024-01-15T00:25:58;21.40;1.00
12922;DHT22;6528;48.086;16.282;2024-01-15T00:28:25;21.40;1.00
12922;DHT22;6528;48.086;16.282;2024-01-15T00:30:52;21.40;1.00
12922;DHT22;6528;48.086;16.282;2024-01-15T00:33:20;21.40;1.00
12922;DHT22;6528;48.086;16.282;2024-01-15T00:35:48;21.40;1.00
12922;DHT22;6528;48.086;16.282;2024-01-15T00:38:15;21.40;1.00
12922;DHT22;6528;48.086;16.282;2024-01-15T00:40:42;21.40;1.00
12922;DHT22;6528;48.086;16.282;2024-01-15T00:43:10;21.30;1.00
12922;DHT22;6528;48.086;16.282;2024-01-15T00:45:37;21.30;1.00
12922;DHT22;6528;48.086;16.282;2024-01-15T00:48:05;21.40;1.00
12922;DHT22;6528;48.086;16.282;2024-01-15T00:50:33;21.40;1.00
12922;DHT22;6528;48.086;16.282;2024-01-15T00:53:01;21.30;1.00
12922;DHT22;6528;48.086;16.282;2024-01-15T00:55:28;21.40;1.00
12922;DHT22;6528;48.086;16.282;2024-01-15T00:57:56;21.30;1.00
12922;DHT22;6528;48.086;16.282;2024-01-15T01:00:23;21.30;1.00
12922;DHT22;6528;48.086;16.282;2024-01-15T01:02:51;21.30;1.00
12922;DHT22;6528;48.086;16.282;2024-01-15T01:05:18;21.30;1.00
12922;DHT22;6528;48.086;16.282;2024-01-15T01:07:46;21.30;1.00
12922;DHT22;6528;48.086;16.282;2024-01-15T01:10:13;21.30;1.00
12922;DHT22;6528;48.086;16.282;2024-01-15T01:12:41;21.30;1.00
12922;DHT22;6528;48.086;16.282;2024-01-15T01:15:09;21.30;1.00
12922;DHT22;6528;48.086;16.282;2024-01-15T01:17:36;21.30;1.00
12922;DHT22;6528;48.086;16.282;2024-01-15T01:20:05;21.30;1.00
12922;DHT22;6528;48.086;16.282;2024-01-15T01:22:36;21.30;1.00
12922;DHT22;6528;48.086;16.282;2024-01-15T01:25:03;21.20;1.00
12922;DHT22;6528;48.086;16.282;2024-01-15T01:27:31;21.30;1.00
12922;DHT22;6528;48.086;16.282;2024-01-15T01:29:58;21.30;1.00
12922;DHT22;6528;48.086;16.282;2024-01-15T01:32:26;21.20;1.00
12922;DHT22;6528;48.086;16.282;2024-01-15T01:34:53;21.20;1.00
12922;DHT22;6528;48.086;16.282;2024-01-15T01:37:21;21.20;1.00
12922;DHT22;6528;48.086;16.282;2024-01-15T01:39:49;21.20;1.00
12922;DHT22;6528;48.086;16.282;2024-01-15T01:42:16;21.20;1.00
12922;DHT22;6528;48.086;16.282;2024-01-15T01:44:44;21.20;1.00
12922;DHT22;6528;48.086;16.282;2024-01-15T01:47:11;21.10;1.00
12922;DHT22;6528;48.086;16.282;2024-01-15T01:49:39;21.20;1.00
12922;DHT22;6528;48.086;16.282;2024-01-15T01:52:07;21.20;1.00
12922;DHT22;6528;48.086;16.282;2024-01-15T01:54:35;21.20;1.00
12922;DHT22;6528;48.086;16.282;2024-01-15T01:57:05;21.20;1.00
12922;DHT22;6528;48.086;16.282;2024-01-15T01:59:34;21.10;1.00
12922;DHT22;6528;48.086;16.282;2024-01-15T02:02:03;21.10;1.00
12922;DHT22;6528;48.086;16.282;2024-01-15T02:04:32;21.10;1.00
12922;DHT22;6528;48.086;16.282;2024-01-15T02:07:00;21.10;1.00
12922;DHT22;6528;48.086;16.282;2024-01-15T02:09:28;21.10;1.00
12922;DHT22;6528;48.086;16.282;2024-01-15T02:11:55;21.10;1.00
12922;DHT22;6528;48.086;16.282;2024-01-15T02:14:22;21.10;1.00
12922;DHT22;6528;48.086;16.282;2024-01-15T02:16:50;21.10;1.00
12922;DHT22;6528;48.086;16.282;2024-01-15T02:19:18;21.10;1.00
12922;DHT22;6528;48.086;16.282;2024-01-15T02:21:46;21.10;1.00
12922;DHT22;6528;48.086;16.282;2024-01-15T02:24:14;21.10;1.00
12922;DHT22;6528;48.086;16.282;2024-01-15T02:26:42;21.10;1.00
12922;DHT22;6528;48.086;16.282;2024-01-15T02:29:10;21.10;1.00
12922;DHT22;6528;48.086;16.282;2024-01-15T02:31:38;21.10;1.00
12922;DHT22;6528;48.086;16.282;2024-01-15T02:34:06;21.10;1.00
12922;DHT22;6528;48.086;16.282;2024-01-15T02:36:34;21.10;1.00
12922;DHT22;6528;48.086;16.282;2024-01-15T02:39:02;21.10;1.00
12922;DHT22;6528;48.086;16.282;2024-01-15T02:41:29;21.10;1.00
12922;DHT22;6528;48.086;16.282;2024-01-15T02:43:56;21.10;1.00
12922;DHT22;6528;48.086;16.282;2024-01-15T02:46:23;21.10;1.00
12922;DHT22;6528;48.086;16.282;2024-01-15T02:48:51;21.10;1.00
12922;DHT22;6528;48.086;16.282;2024-01-15T02:51:18;21.10;1.00
12922;DHT22;6528;48.086;16.282;2024-01-15T02:53:46;21.10;1.00
12922;DHT22;6528;48.086;16.282;2024-01-15T02:56:14;21.10;1.00
12922;DHT22;6528;48.086;16.282;2024-01-15T02:58:41;21.10;1.00
12922;DHT22;6528;48.086;16.282;2024-01-15T03:01:09;21.10;1.00
12922;DHT22;6528;48.086;16.282;2024-01-15T03:03:36;21.10;1.00
12922;DHT22;6528;48.086;16.282;2024-01-15T03:06:04;21.10;1.00
12922;DHT22;6528;48.086;16.282;2024-01-15T03:08:32;21.10;1.00
12922;DHT22;6528;48.086;16.282;2024-01-15T03:10:59;21.10;1.00
12922;DHT22;6528;48.086;16.282;2024-01-15T03:13:27;21.10;1.00
12922;DHT22;6528;48.086;16.282;2024-01-15T03:15:54;21.10;1.00
12922;DHT22;6528;48.086;16.282;2024-01-15T03:18:22;21.10;1.00
12922;DHT22;6528;48.086;16.282;2024-01-15T03:20:49;21.10;1.00
12922;DHT22;6528;48.086;16.282;2024-01-15T03:23:16;21.00;1.00
12922;DHT22;6528;48.086;16.282;2024-01-15T03:25:44;21.10;1.00
12922;DHT22;6528;48.086;16.282;2024-01-15T03:28:11;21.00;1.00
12922;DHT22;6528;48.086;16.282;2024-01-15T03:30:39;21.00;1.00
12922;DHT22;6528;48.086;16.282;2024-01-15T03:33:06;21.10;1.00
12922;DHT22;6528;48.086;16.282;2024-01-15T03:35:34;21.10;1.00
12922;DHT22;6528;48.086;16.282;2024-01-15T03:38:01;21.00;1.00
12922;DHT22;6528;48.086;16.282;2024-01-15T03:40:29;21.10;1.00
12922;DHT22;6528;48.086;16.282;2024-01-15T03:42:56;21.10;1.00
12922;DHT22;6528;48.086;16.282;2024-01-15T03:45:24;21.00;1.00
12922;DHT22;6528;48.086;16.282;2024-01-15T03:47:51;21.00;1.00
12922;DHT22;6528;48.086;16.282;2024-01-15T03:50:19;21.10;1.00
12922;DHT22;6528;48.086;16.282;2024-01-15T03:52:47;21.10;1.00
12922;DHT22;6528;48.086;16.282;2024-01-15T03:55:14;21.10;1.00
12922;DHT22;6528;48.086;16.282;2024-01-15T03:57:41;21.10;1.00
12922;DHT22;6528;48.086;16.282;2024-01-15T04:00:09;21.10;1.00
12922;DHT22;6528;48.086;16.282;2024-01-15T04:02:37;21.10;1.00
12922;DHT22;6528;48.086;16.282;2024-01-15T04:05:05;21.10;1.00
12922;DHT22;6528;48.086;16.282;2024-01-15T04:07:32;21.10;1.00
12922;DHT22;6528;48.086;16.282;2024-01-15T04:09:59;21.10;1.00
12922;DHT22;6528;48.086;16.282;2024-01-15T04:12:27;21.10;1.00
12922;DHT22;6528;48.086;16.282;2024-01-15T04:14:55;21.10;1.00
12922;DHT22;6528;48.086;16.282;2024-01-15T04:17:22;21.10;1.00
12922;DHT22;6528;48.086;16.282;2024-01-15T04:19:50;21.10;1.00
12922;DHT22;6528;48.086;16.282;2024-01-15T04:22:17;21.10;1.00
12922;DHT22;6528;48.086;16.282;2024-01-15T04:24:45;21.10;1.00
12922;DHT22;6528;48.086;16.282;2024-01-15T04:27:12;21.10;1.00
12922;DHT22;6528;48.086;16.282;2024-01-15T04:29:40;21.10;1.00
12922;DHT22;6528;48.086;16.282;2024-01-15T04:32:08;21.10;1.00
12922;DHT22;6528;48.086;16.282;2024-01-15T04:34:35;21.20;1.00
12922;DHT22;6528;48.086;16.282;2024-01-15T04:37:03;21.20;1.00
12922;DHT22;6528;48.086;16.282;2024-01-15T04:39:30;21.10;1.00
12922;DHT22;6528;48.086;16.282;2024-01-15T04:41:58;21.20;1.00
12922;DHT22;6528;48.086;16.282;2024-01-15T04:44:25;21.20;1.00
12922;DHT22;6528;48.086;16.282;2024-01-15T04:46:52;21.20;1.00
12922;DHT22;6528;48.086;16.282;2024-01-15T04:49:20;21.20;1.00
12922;DHT22;6528;48.086;16.282;2024-01-15T04:51:48;21.20;1.00
12922;DHT22;6528;48.086;16.282;2024-01-15T04:54:15;21.20;1.00
12922;DHT22;6528;48.086;16.282;2024-01-15T04:56:45;21.20;1.00
12922;DHT22;6528;48.086;16.282;2024-01-15T04:59:13;21.20;1.00
12922;DHT22;6528;48.086;16.282;2024-01-15T05:01:41;21.30;1.00
12922;DHT22;6528;48.086;16.282;2024-01-15T05:04:09;21.30;1.00
12922;DHT22;6528;48.086;16.282;2024-01-15T05:06:37;21.30;1.00
12922;DHT22;6528;48.086;16.282;2024-01-15T05:09:04;21.30;1.00
12922;DHT22;6528;48.086;16.282;2024-01-15T05:11:32;21.30;1.00
12922;DHT22;6528;48.086;16.282;2024-01-15T05:13:59;21.30;1.00
12922;DHT22;6528;48.086;16.282;2024-01-15T05:16:27;21.30;1.00
12922;DHT22;6528;48.086;16.282;2024-01-15T05:18:54;21.30;1.00
12922;DHT22;6528;48.086;16.282;2024-01-15T05:21:22;21.30;1.00
12922;DHT22;6528;48.086;16.282;2024-01-15T05:23:49;21.40;1.00
12922;DHT22;6528;48.086;16.282;2024-01-15T05:26:17;21.40;1.00
12922;DHT22;6528;48.086;16.282;2024-01-15T05:28:44;21.30;1.00
12922;DHT22;6528;48.086;16.282;2024-01-15T05:31:12;21.40;1.00
12922;DHT22;6528;48.086;16.282;2024-01-15T05:33:39;21.30;1.00
12922;DHT22;6528;48.086;16.282;2024-01-15T05:36:07;21.40;1.00
12922;DHT22;6528;48.086;16.282;2024-01-15T05:38:35;21.40;1.00
12922;DHT22;6528;48.086;16.282;2024-01-15T05:41:03;21.40;1.00
12922;DHT22;6528;48.086;16.282;2024-01-15T05:43:30;21.40;1.00
12922;DHT22;6528;48.086;16.282;2024-01-15T05:45:57;21.40;1.00
12922;DHT22;6528;48.086;16.282;2024-01-15T05:48:25;21.40;1.00
12922;DHT22;6528;48.086;16.282;2024-01-15T05:50:53;21.40;1.00
12922;DHT22;6528;48.086;16.282;2024-01-15T05:53:20;21.40;1.00
12922;DHT22;6528;48.086;16.282;2024-01-15T05:55:48;21.40;1.00
12922;DHT22;6528;48.086;16.282;2024-01-15T05:58:15;21.40;1.00
12922;DHT22;6528;48.086;16.282;2024-01-15T06:00:43;21.40;1.00
12922;DHT22;6528;48.086;16.282;2024-01-15T06:03:10;21.40;1.00
12922;DHT22;6528;48.086;16.282;2024-01-15T06:05:38;21.40;1.00
12922;DHT22;6528;48.086;16.282;2024-01-15T06:08:05;21.40;1.00
12922;DHT22;6528;48.086;16.282;2024-01-15T06:10:33;21.40;1.00
12922;DHT22;6528;48.086;16.282;2024-01-15T06:13:01;21.40;1.00
12922;DHT22;6528;48.086;16.282;2024-01-15T06:15:28;21.40;1.00
12922;DHT22;6528;48.086;16.282;2024-01-15T06:17:55;21.40;1.00
12922;DHT22;6528;48.086;16.282;2024-01-15T06:20:23;21.40;1.00
12922;DHT22;6528;48.086;16.282;2024-01-15T06:22:51;21.40;1.00
12922;DHT22;6528;48.086;16.282;2024-01-15T06:25:18;21.40;1.00
12922;DHT22;6528;48.086;16.282;2024-01-15T06:27:45;21.40;1.00
12922;DHT22;6528;48.086;16.282;2024-01-15T06:30:13;21.40;1.00
12922;DHT22;6528;48.086;16.282;2024-01-15T06:32:41;21.40;1.00
12922;DHT22;6528;48.086;16.282;2024-01-15T06:35:09;21.40;1.00
12922;DHT22;6528;48.086;16.282;2024-01-15T06:37:37;21.40;1.00
12922;DHT22;6528;48.086;16.282;2024-01-15T06:40:05;21.40;1.00
12922;DHT22;6528;48.086;16.282;2024-01-15T06:42:33;21.40;1.00
12922;DHT22;6528;48.086;16.282;2024-01-15T06:45:00;21.40;1.00
12922;DHT22;6528;48.086;16.282;2024-01-15T06:47:28;21.40;1.00
12922;DHT22;6528;48.086;16.282;2024-01-15T06:49:55;21.40;1.00
12922;DHT22;6528;48.086;16.282;2024-01-15T06:52:23;21.40;1.00
12922;DHT22;6528;48.086;16.282;2024-01-15T06:54:50;21.40;1.00
12922;DHT22;6528;48.086;16.282;2024-01-15T06:57:18;21.40;1.00
12922;DHT22;6528;48.086;16.282;2024-01-15T06:59:47;21.40;1.00
12922;DHT22;6528;48.086;16.282;2024-01-15T07:02:14;21.40;1.00
12922;DHT22;6528;48.086;16.282;2024-01-15T07:04:42;21.40;1.00
12922;DHT22;6528;48.086;16.282;2024-01-15T07:07:10;21.40;1.00
12922;DHT22;6528;48.086;16.282;2024-01-15T07:09:37;21.40;1.00
12922;DHT22;6528;48.086;16.282;2024-01-15T07:12:05;21.40;1.00
12922;DHT22;6528;48.086;16.282;2024-01-15T07:14:32;21.40;1.00
12922;DHT22;6528;48.086;16.282;2024-01-15T07:17:00;21.40;1.00
12922;DHT22;6528;48.086;16.282;2024-01-15T07:19:27;21.40;1.00
12922;DHT22;6528;48.086;16.282;2024-01-15T07:21:55;21.40;1.00
12922;DHT22;6528;48.086;16.282;2024-01-15T07:24:23;21.40;1.00
12922;DHT22;6528;48.086;16.282;2024-01-15T07:26:51;21.50;1.00
12922;DHT22;6528;48.086;16.282;2024-01-15T07:29:18;21.50;1.00
12922;DHT22;6528;48.086;16.282;2024-01-15T07:31:51;21.40;1.00
12922;DHT22;6528;48.086;16.282;2024-01-15T07:34:19;21.40;1.00
12922;DHT22;6528;48.086;16.282;2024-01-15T07:36:47;21.50;1.00
12922;DHT22;6528;48.086;16.282;2024-01-15T07:39:14;21.40;1.00
12922;DHT22;6528;48.086;16.282;2024-01-15T07:41:42;21.40;1.00
12922;DHT22;6528;48.086;16.282;2024-01-15T07:44:09;21.00;1.00
12922;DHT22;6528;48.086;16.282;2024-01-15T11:27:41;16.70;1.00
12922;DHT22;6528;48.086;16.282;2024-01-15T11:30:13;22.30;1.00
12922;DHT22;6528;48.086;16.282;2024-01-15T11:32:41;22.20;1.00
12922;DHT22;6528;48.086;16.282;2024-01-15T11:35:10;22.30;1.00
12922;DHT22;6528;48.086;16.282;2024-01-15T11:43:03;22.30;1.00
12922;DHT22;6528;48.086;16.282;2024-01-15T11:45:31;22.20;1.00
12922;DHT22;6528;48.086;16.282;2024-01-15T11:48:14;22.20;1.00
12922;DHT22;6528;48.086;16.282;2024-01-15T11:50:50;22.20;1.00
12922;DHT22;6528;48.086;16.282;2024-01-15T11:53:33;22.20;1.00
12922;DHT22;6528;48.086;16.282;2024-01-15T11:56:09;22.20;1.00
12922;DHT22;6528;48.086;16.282;2024-01-15T11:58:39;22.20;1.00
12922;DHT22;6528;48.086;16.282;2024-01-15T12:01:07;22.20;1.00
12922;DHT22;6528;48.086;16.282;2024-01-15T12:03:35;22.20;1.00
12922;DHT22;6528;48.086;16.282;2024-01-15T12:06:05;22.20;1.00
12922;DHT22;6528;48.086;16.282;2024-01-15T12:08:34;22.20;1.00
12922;DHT22;6528;48.086;16.282;2024-01-15T12:11:07;22.20;1.00
12922;DHT22;6528;48.086;16.282;2024-01-15T12:13:38;22.20;1.00
12922;DHT22;6528;48.086;16.282;2024-01-15T12:16:05;22.20;1.00
12922;DHT22;6528;48.086;16.282;2024-01-15T12:18:33;22.20;1.00
12922;DHT22;6528;48.086;16.282;2024-01-15T12:21:01;22.20;1.00
12922;DHT22;6528;48.086;16.282;2024-01-15T12:23:28;22.30;1.00
12922;DHT22;6528;48.086;16.282;2024-01-15T12:25:56;22.30;1.00
12922;DHT22;6528;48.086;16.282;2024-01-15T12:28:23;22.30;1.00
12922;DHT22;6528;48.086;16.282;2024-01-15T12:30:51;22.30;1.00
12922;DHT22;6528;48.086;16.282;2024-01-15T12:33:18;22.30;1.00
12922;DHT22;6528;48.086;16.282;2024-01-15T12:35:52;22.30;1.00
12922;DHT22;6528;48.086;16.282;2024-01-15T12:38:20;22.30;1.00
12922;DHT22;6528;48.086;16.282;2024-01-15T12:40:48;22.30;1.00
12922;DHT22;6528;48.086;16.282;2024-01-15T12:43:15;22.30;1.00
12922;DHT22;6528;48.086;16.282;2024-01-15T12:45:45;22.30;1.00
12922;DHT22;6528;48.086;16.282;2024-01-15T12:48:12;22.30;1.00
12922;DHT22;6528;48.086;16.282;2024-01-15T12:50:43;22.40;1.00
12922;DHT22;6528;48.086;16.282;2024-01-15T12:53:12;22.40;1.00
12922;DHT22;6528;48.086;16.282;2024-01-15T12:55:39;22.40;1.00
12922;DHT22;6528;48.086;16.282;2024-01-15T12:58:07;22.40;1.00
12922;DHT22;6528;48.086;16.282;2024-01-15T13:00:34;22.40;1.00
12922;DHT22;6528;48.086;16.282;2024-01-15T13:03:02;22.40;1.00
12922;DHT22;6528;48.086;16.282;2024-01-15T13:05:32;22.40;1.00
12922;DHT22;6528;48.086;16.282;2024-01-15T13:08:01;22.40;1.00
12922;DHT22;6528;48.086;16.282;2024-01-15T13:10:31;22.40;1.00
12922;DHT22;6528;48.086;16.282;2024-01-15T13:12:58;22.40;1.00
12922;DHT22;6528;48.086;16.282;2024-01-15T13:15:26;22.40;1.00
12922;DHT22;6528;48.086;16.282;2024-01-15T13:17:54;22.40;1.00
12922;DHT22;6528;48.086;16.282;2024-01-15T13:20:21;22.40;1.00
12922;DHT22;6528;48.086;16.282;2024-01-15T13:22:49;22.40;1.00
12922;DHT22;6528;48.086;16.282;2024-01-15T13:25:16;22.40;1.00
12922;DHT22;6528;48.086;16.282;2024-01-15T13:27:44;22.40;1.00
12922;DHT22;6528;48.086;16.282;2024-01-15T13:30:12;22.40;1.00
12922;DHT22;6528;48.086;16.282;2024-01-15T13:32:40;22.40;1.00
12922;DHT22;6528;48.086;16.282;2024-01-15T13:35:08;22.40;1.00
12922;DHT22;6528;48.086;16.282;2024-01-15T13:37:37;22.40;1.00
12922;DHT22;6528;48.086;16.282;2024-01-15T13:40:05;22.40;1.00
12922;DHT22;6528;48.086;16.282;2024-01-15T13:42:35;22.40;1.00
12922;DHT22;6528;48.086;16.282;2024-01-15T13:45:06;22.40;1.00
12922;DHT22;6528;48.086;16.282;2024-01-15T13:47:35;22.50;1.00
12922;DHT22;6528;48.086;16.282;2024-01-15T13:50:03;22.50;1.00
12922;DHT22;6528;48.086;16.282;2024-01-15T13:52:30;22.40;1.00
12922;DHT22;6528;48.086;16.282;2024-01-15T13:54:58;22.50;1.00
12922;DHT22;6528;48.086;16.282;2024-01-15T13:57:25;22.40;1.00
12922;DHT22;6528;48.086;16.282;2024-01-15T13:59:53;22.40;1.00
12922;DHT22;6528;48.086;16.282;2024-01-15T14:02:20;22.40;1.00
12922;DHT22;6528;48.086;16.282;2024-01-15T14:04:50;22.50;1.00
12922;DHT22;6528;48.086;16.282;2024-01-15T14:07:18;22.40;1.00
12922;DHT22;6528;48.086;16.282;2024-01-15T14:09:45;22.40;1.00
12922;DHT22;6528;48.086;16.282;2024-01-15T14:12:13;22.40;1.00
12922;DHT22;6528;48.086;16.282;2024-01-15T14:14:40;22.50;1.00
12922;DHT22;6528;48.086;16.282;2024-01-15T14:17:08;22.40;1.00
12922;DHT22;6528;48.086;16.282;2024-01-15T14:19:35;22.40;1.00
12922;DHT22;6528;48.086;16.282;2024-01-15T14:22:03;22.40;1.00
12922;DHT22;6528;48.086;16.282;2024-01-15T14:24:31;22.50;1.00
12922;DHT22;6528;48.086;16.282;2024-01-15T14:26:58;22.50;1.00
12922;DHT22;6528;48.086;16.282;2024-01-15T14:29:26;22.40;1.00
12922;DHT22;6528;48.086;16.282;2024-01-15T14:31:54;22.40;1.00
12922;DHT22;6528;48.086;16.282;2024-01-15T14:34:22;22.40;1.00
12922;DHT22;6528;48.086;16.282;2024-01-15T14:36:53;22.40;1.00
12922;DHT22;6528;48.086;16.282;2024-01-15T14:39:22;22.50;1.00
12922;DHT22;6528;48.086;16.282;2024-01-15T14:41:51;22.40;1.00
12922;DHT22;6528;48.086;16.282;2024-01-15T14:44:19;22.40;1.00
12922;DHT22;6528;48.086;16.282;2024-01-15T14:46:47;22.40;1.00
12922;DHT22;6528;48.086;16.282;2024-01-15T14:49:14;22.40;1.00
12922;DHT22;6528;48.086;16.282;2024-01-15T14:51:44;22.40;1.00
12922;DHT22;6528;48.086;16.282;2024-01-15T14:54:12;22.40;1.00
12922;DHT22;6528;48.086;16.282;2024-01-15T14:56:39;22.40;1.00
12922;DHT22;6528;48.086;16.282;2024-01-15T14:59:07;22.40;1.00
12922;DHT22;6528;48.086;16.282;2024-01-15T15:01:34;22.40;1.00
12922;DHT22;6528;48.086;16.282;2024-01-15T15:04:02;22.40;1.00
12922;DHT22;6528;48.086;16.282;2024-01-15T15:06:30;22.40;1.00
12922;DHT22;6528;48.086;16.282;2024-01-15T15:08:58;22.40;1.00
12922;DHT22;6528;48.086;16.282;2024-01-15T15:11:28;22.40;1.00
12922;DHT22;6528;48.086;16.282;2024-01-15T15:13:55;22.40;1.00
12922;DHT22;6528;48.086;16.282;2024-01-15T15:16:23;22.40;1.00
12922;DHT22;6528;48.086;16.282;2024-01-15T15:18:50;22.40;1.00
12922;DHT22;6528;48.086;16.282;2024-01-15T15:21:18;22.40;1.00
12922;DHT22;6528;48.086;16.282;2024-01-15T15:23:46;22.40;1.00
12922;DHT22;6528;48.086;16.282;2024-01-15T15:26:14;22.50;1.00
12922;DHT22;6528;48.086;16.282;2024-01-15T15:28:42;22.40;1.00
12922;DHT22;6528;48.086;16.282;2024-01-15T15:31:09;22.40;1.00
12922;DHT22;6528;48.086;16.282;2024-01-15T15:33:40;22.40;1.00
12922;DHT22;6528;48.086;16.282;2024-01-15T15:36:08;22.40;1.00
12922;DHT22;6528;48.086;16.282;2024-01-15T15:38:35;22.40;1.00
12922;DHT22;6528;48.086;16.282;2024-01-15T15:41:03;22.40;1.00
12922;DHT22;6528;48.086;16.282;2024-01-15T15:43:31;22.40;1.00
12922;DHT22;6528;48.086;16.282;2024-01-15T15:45:58;22.40;1.00
12922;DHT22;6528;48.086;16.282;2024-01-15T15:48:26;22.40;1.00
12922;DHT22;6528;48.086;16.282;2024-01-15T15:50:54;22.40;1.00
12922;DHT22;6528;48.086;16.282;2024-01-15T15:53:23;22.40;1.00
12922;DHT22;6528;48.086;16.282;2024-01-15T15:55:51;22.40;1.00
12922;DHT22;6528;48.086;16.282;2024-01-15T15:58:19;22.40;1.00
12922;DHT22;6528;48.086;16.282;2024-01-15T16:00:47;22.40;1.00
12922;DHT22;6528;48.086;16.282;2024-01-15T16:03:15;22.40;1.00
12922;DHT22;6528;48.086;16.282;2024-01-15T16:05:43;22.40;1.00
12922;DHT22;6528;48.086;16.282;2024-01-15T16:08:19;22.40;1.00
12922;DHT22;6528;48.086;16.282;2024-01-15T16:10:47;22.40;1.00
12922;DHT22;6528;48.086;16.282;2024-01-15T16:13:19;22.40;1.00
12922;DHT22;6528;48.086;16.282;2024-01-15T16:15:47;22.40;1.00
12922;DHT22;6528;48.086;16.282;2024-01-15T16:18:15;22.40;1.00
12922;DHT22;6528;48.086;16.282;2024-01-15T16:21:03;22.40;1.00
12922;DHT22;6528;48.086;16.282;2024-01-15T16:23:54;22.40;1.00
12922;DHT22;6528;48.086;16.282;2024-01-15T16:26:42;22.40;1.00
12922;DHT22;6528;48.086;16.282;2024-01-15T16:29:10;22.40;1.00
12922;DHT22;6528;48.086;16.282;2024-01-15T16:31:38;22.40;1.00
12922;DHT22;6528;48.086;16.282;2024-01-15T16:34:05;22.40;1.00
12922;DHT22;6528;48.086;16.282;2024-01-15T16:36:37;22.40;1.00
12922;DHT22;6528;48.086;16.282;2024-01-15T16:39:05;22.40;1.00
12922;DHT22;6528;48.086;16.282;2024-01-15T16:41:33;22.40;1.00
12922;DHT22;6528;48.086;16.282;2024-01-15T16:44:00;22.40;1.00
12922;DHT22;6528;48.086;16.282;2024-01-15T16:46:28;22.40;1.00
12922;DHT22;6528;48.086;16.282;2024-01-15T16:48:55;22.40;1.00
12922;DHT22;6528;48.086;16.282;2024-01-15T16:51:23;22.40;1.00
12922;DHT22;6528;48.086;16.282;2024-01-15T16:53:50;22.40;1.00
12922;DHT22;6528;48.086;16.282;2024-01-15T16:56:18;22.40;1.00
12922;DHT22;6528;48.086;16.282;2024-01-15T16:58:46;22.40;1.00
12922;DHT22;6528;48.086;16.282;2024-01-15T17:01:14;22.40;1.00
12922;DHT22;6528;48.086;16.282;2024-01-15T17:03:41;22.40;1.00
12922;DHT22;6528;48.086;16.282;2024-01-15T17:06:09;22.40;1.00
12922;DHT22;6528;48.086;16.282;2024-01-15T17:08:36;22.40;1.00
12922;DHT22;6528;48.086;16.282;2024-01-15T17:11:04;22.40;1.00
12922;DHT22;6528;48.086;16.282;2024-01-15T17:13:31;22.40;1.00
12922;DHT22;6528;48.086;16.282;2024-01-15T17:16:00;22.40;1.00
12922;DHT22;6528;48.086;16.282;2024-01-15T17:18:27;22.40;1.00
12922;DHT22;6528;48.086;16.282;2024-01-15T17:20:55;22.40;1.00
12922;DHT22;6528;48.086;16.282;2024-01-15T17:23:23;22.40;1.00
12922;DHT22;6528;48.086;16.282;2024-01-15T17:25:50;22.40;1.00
12922;DHT22;6528;48.086;16.282;2024-01-15T17:28:18;22.40;1.00
12922;DHT22;6528;48.086;16.282;2024-01-15T17:30:47;22.40;1.00
12922;DHT22;6528;48.086;16.282;2024-01-15T17:33:14;22.40;1.00
12922;DHT22;6528;48.086;16.282;2024-01-15T17:35:55;22.40;1.00
12922;DHT22;6528;48.086;16.282;2024-01-15T17:38:23;22.40;1.00
12922;DHT22;6528;48.086;16.282;2024-01-15T17:40:51;22.40;1.00
12922;DHT22;6528;48.086;16.282;2024-01-15T17:43:19;22.40;1.00
12922;DHT22;6528;48.086;16.282;2024-01-15T17:45:47;22.40;1.00
12922;DHT22;6528;48.086;16.282;2024-01-15T17:48:15;22.40;1.00
12922;DHT22;6528;48.086;16.282;2024-01-15T17:50:42;22.40;1.00
12922;DHT22;6528;48.086;16.282;2024-01-15T17:53:10;22.40;1.00
12922;DHT22;6528;48.086;16.282;2024-01-15T17:55:38;22.40;1.00
12922;DHT22;6528;48.086;16.282;2024-01-15T17:58:06;22.40;1.00
12922;DHT22;6528;48.086;16.282;2024-01-15T18:00:33;22.40;1.00
12922;DHT22;6528;48.086;16.282;2024-01-15T18:03:01;22.40;1.00
12922;DHT22;6528;48.086;16.282;2024-01-15T18:05:29;22.40;1.00
12922;DHT22;6528;48.086;16.282;2024-01-15T18:07:57;22.40;1.00
12922;DHT22;6528;48.086;16.282;2024-01-15T18:10:25;22.40;1.00
12922;DHT22;6528;48.086;16.282;2024-01-15T18:12:53;22.40;1.00
12922;DHT22;6528;48.086;16.282;2024-01-15T18:15:21;22.40;1.00
12922;DHT22;6528;48.086;16.282;2024-01-15T18:17:48;22.40;1.00
12922;DHT22;6528;48.086;16.282;2024-01-15T18:20:16;22.40;1.00
12922;DHT22;6528;48.086;16.282;2024-01-15T18:22:44;22.40;1.00
12922;DHT22;6528;48.086;16.282;2024-01-15T18:25:17;22.40;1.00
12922;DHT22;6528;48.086;16.282;2024-01-15T18:27:45;22.40;1.00
12922;DHT22;6528;48.086;16.282;2024-01-15T18:30:13;22.40;1.00
12922;DHT22;6528;48.086;16.282;2024-01-15T18:32:41;22.40;1.00
12922;DHT22;6528;48.086;16.282;2024-01-15T18:35:09;22.40;1.00
12922;DHT22;6528;48.086;16.282;2024-01-15T18:37:36;22.40;1.00
12922;DHT22;6528;48.086;16.282;2024-01-15T18:40:05;22.40;1.00
12922;DHT22;6528;48.086;16.282;2024-01-15T18:42:33;22.40;1.00
12922;DHT22;6528;48.086;16.282;2024-01-15T18:45:00;22.40;1.00
12922;DHT22;6528;48.086;16.282;2024-01-15T18:47:27;22.50;1.00
12922;DHT22;6528;48.086;16.282;2024-01-15T18:49:54;22.40;1.00
12922;DHT22;6528;48.086;16.282;2024-01-15T18:52:22;22.40;1.00
12922;DHT22;6528;48.086;16.282;2024-01-15T18:54:49;22.40;1.00
12922;DHT22;6528;48.086;16.282;2024-01-15T18:57:17;22.40;1.00
12922;DHT22;6528;48.086;16.282;2024-01-15T18:59:44;22.50;1.00
12922;DHT22;6528;48.086;16.282;2024-01-15T19:02:13;22.50;1.00
12922;DHT22;6528;48.086;16.282;2024-01-15T19:04:40;22.50;1.00
12922;DHT22;6528;48.086;16.282;2024-01-15T19:07:07;22.50;1.00
12922;DHT22;6528;48.086;16.282;2024-01-15T19:09:34;22.50;1.00
12922;DHT22;6528;48.086;16.282;2024-01-15T19:12:02;22.50;1.00
12922;DHT22;6528;48.086;16.282;2024-01-15T19:14:31;22.50;1.00
12922;DHT22;6528;48.086;16.282;2024-01-15T19:16:58;22.50;1.00
12922;DHT22;6528;48.086;16.282;2024-01-15T19:19:28;22.50;1.00
12922;DHT22;6528;48.086;16.282;2024-01-15T19:21:56;22.60;1.00
12922;DHT22;6528;48.086;16.282;2024-01-15T19:24:24;22.60;1.00
12922;DHT22;6528;48.086;16.282;2024-01-15T19:26:52;22.60;1.00
12922;DHT22;6528;48.086;16.282;2024-01-15T19:29:20;22.60;1.00
12922;DHT22;6528;48.086;16.282;2024-01-15T19:31:47;22.60;1.00
12922;DHT22;6528;48.086;16.282;2024-01-15T19:34:14;22.60;1.00
12922;DHT22;6528;48.086;16.282;2024-01-15T19:36:41;22.60;1.00